Time;durP1;ratioP1;P1;durP2;ratioP2;P2;SDS_P1;SDS_P2;PMS_P1;PMS_P2;Temp;Humidity;BMP_temperature;BMP_pressure;BME280_temperature;BME280_humidity;BME280_pressure;Samples;Min_cycle;Max_cycle;Signal;HPM_P1;HPM_P2
2022/01/18 00:00:46;;;;;;;;;;;15.90;35.00;;;;;;8368058;28;19986;-49
2022/01/18 00:04:46;;;;;;;;;;;15.90;35.00;;;;;;8367699;28;19912;-48
2022/01/18 00:08:47;;;;;;;;;;;15.90;35.00;;;;;;8367864;28;19924;-48
2022/01/18 00:17:16;;;;;;;;;;;15.90;35.00;;;;;;8371348;28;19924;-48
2022/01/18 00:21:24;;;;;;;;;;;15.90;35.00;;;;;;8370462;28;19962;-51
2022/01/18 00:25:25;;;;;;;;;;;15.90;35.00;;;;;;8366866;28;20298;-49
2022/01/18 00:29:27;;;;;;;;;;;15.90;35.00;;;;;;8367183;28;19913;-49
2022/01/18 00:33:54;;;;;;;;;;;15.90;35.00;;;;;;8367091;28;20389;-49
2022/01/18 00:37:56;;;;;;;;;;;15.90;35.00;;;;;;8366570;28;19978;-49
2022/01/18 00:41:56;;;;;;;;;;;15.90;35.00;;;;;;8366874;28;19988;-49
2022/01/18 00:45:57;;;;;;;;;;;15.90;35.00;;;;;;8366094;28;19979;-48
2022/01/18 00:50:01;;;;;;;;;;;15.90;34.90;;;;;;8366777;28;19921;-49
2022/01/18 00:54:02;;;;;;;;;;;16.00;35.00;;;;;;8366343;28;20007;-48
2022/01/18 00:58:02;;;;;;;;;;;16.00;35.00;;;;;;8365799;28;19928;-51
2022/01/18 01:02:03;;;;;;;;;;;16.00;34.90;;;;;;8366235;28;19921;-52
2022/01/18 01:06:04;;;;;;;;;;;16.00;34.80;;;;;;8366383;28;20369;-48
2022/01/18 01:10:05;;;;;;;;;;;16.00;34.90;;;;;;8365847;28;19917;-49
2022/01/18 01:14:08;;;;;;;;;;;16.00;34.90;;;;;;8365860;28;19975;-47
2022/01/18 01:18:49;;;;;;;;;;;16.00;34.90;;;;;;8365871;28;19921;-48
2022/01/18 01:44:19;;;;;;;;;;;15.90;35.00;;;;;;8372309;28;20012;-48
2022/01/18 01:48:22;;;;;;;;;;;15.90;35.00;;;;;;8364825;28;19944;-47
2022/01/18 01:52:22;;;;;;;;;;;15.90;35.00;;;;;;8364168;28;20305;-47
2022/01/18 01:56:23;;;;;;;;;;;15.90;35.00;;;;;;8364319;28;19968;-47
2022/01/18 02:00:23;;;;;;;;;;;15.90;35.00;;;;;;8364702;28;19912;-47
2022/01/18 02:04:24;;;;;;;;;;;15.90;35.00;;;;;;8363086;28;19966;-49
2022/01/18 02:08:24;;;;;;;;;;;15.80;35.00;;;;;;8363700;28;20433;-50
2022/01/18 02:12:25;;;;;;;;;;;15.90;35.00;;;;;;8363982;28;19924;-47
2022/01/18 02:25:05;;;;;;;;;;;15.90;35.00;;;;;;8363760;28;19923;-48
2022/01/18 02:29:06;;;;;;;;;;;15.80;35.00;;;;;;8363551;28;19917;-47
2022/01/18 02:33:06;;;;;;;;;;;15.80;35.00;;;;;;8363678;28;20321;-48
2022/01/18 02:37:07;;;;;;;;;;;15.90;35.00;;;;;;8362855;28;20067;-48
2022/01/18 02:41:08;;;;;;;;;;;15.80;35.00;;;;;;8363426;28;19913;-48
2022/01/18 02:45:08;;;;;;;;;;;15.90;35.00;;;;;;8363607;28;19962;-48
2022/01/18 02:49:09;;;;;;;;;;;15.90;35.00;;;;;;8362955;28;19921;-49
2022/01/18 02:53:09;;;;;;;;;;;15.90;35.00;;;;;;8363291;28;19939;-49
2022/01/18 02:57:13;;;;;;;;;;;15.90;35.00;;;;;;8362935;28;19947;-46
2022/01/18 03:05:32;;;;;;;;;;;15.90;35.00;;;;;;8363393;28;19986;-47
2022/01/18 03:09:33;;;;;;;;;;;15.90;35.00;;;;;;8363168;28;19917;-50
2022/01/18 03:13:33;;;;;;;;;;;15.90;35.00;;;;;;8362392;28;19923;-48
2022/01/18 03:17:34;;;;;;;;;;;15.90;35.00;;;;;;8363791;28;20389;-47
2022/01/18 03:21:35;;;;;;;;;;;15.90;35.00;;;;;;8369459;28;20369;-48
2022/01/18 03:29:36;;;;;;;;;;;15.90;35.00;;;;;;8369573;28;20373;-48
2022/01/18 03:33:36;;;;;;;;;;;15.90;35.00;;;;;;8369024;28;19982;-48
2022/01/18 03:37:37;;;;;;;;;;;15.80;35.00;;;;;;8368350;28;20416;-47
2022/01/18 03:41:38;;;;;;;;;;;15.80;35.00;;;;;;8368664;28;19969;-49
2022/01/18 03:45:41;;;;;;;;;;;15.80;35.00;;;;;;8368913;28;19980;-47
2022/01/18 03:49:42;;;;;;;;;;;15.80;35.00;;;;;;8368205;28;19994;-51
2022/01/18 03:53:42;;;;;;;;;;;15.80;35.00;;;;;;8368404;28;19924;-49
2022/01/18 03:57:43;;;;;;;;;;;15.80;35.60;;;;;;8368171;28;20314;-48
2022/01/18 04:01:43;;;;;;;;;;;15.80;35.00;;;;;;8367600;28;19959;-48
2022/01/18 04:05:44;;;;;;;;;;;15.80;35.00;;;;;;8368247;28;20381;-49
2022/01/18 04:09:44;;;;;;;;;;;15.80;35.00;;;;;;8367803;28;19917;-49
2022/01/18 04:13:45;;;;;;;;;;;15.80;35.00;;;;;;8367321;28;20281;-49
2022/01/18 04:30:30;;;;;;;;;;;15.90;35.10;;;;;;8370292;28;19921;-48
2022/01/18 04:34:31;;;;;;;;;;;15.90;35.10;;;;;;8366702;28;19925;-49
2022/01/18 04:38:32;;;;;;;;;;;15.90;35.00;;;;;;8367252;28;20389;-49
2022/01/18 04:42:45;;;;;;;;;;;15.90;35.00;;;;;;8366842;28;19920;-48
2022/01/18 04:51:07;;;;;;;;;;;15.90;35.00;;;;;;8369216;28;19927;-49
2022/01/18 04:55:10;;;;;;;;;;;15.90;35.00;;;;;;8365860;28;19931;-49
2022/01/18 04:59:11;;;;;;;;;;;15.90;35.00;;;;;;8366657;28;19963;-49
2022/01/18 05:03:11;;;;;;;;;;;15.90;35.00;;;;;;8366378;28;20289;-49
2022/01/18 05:07:14;;;;;;;;;;;15.90;35.00;;;;;;8338089;28;19952;-49
2022/01/18 05:11:16;;;;;;;;;;;15.90;35.00;;;;;;8366529;28;19916;-49
2022/01/18 05:19:59;;;;;;;;;;;15.90;35.00;;;;;;8366291;28;19921;-49
2022/01/18 05:23:59;;;;;;;;;;;15.80;35.00;;;;;;8365717;28;19913;-52
2022/01/18 05:28:01;;;;;;;;;;;15.80;34.90;;;;;;8365010;28;20304;-49
2022/01/18 05:32:01;;;;;;;;;;;15.80;34.90;;;;;;8365462;28;19917;-48
2022/01/18 05:36:02;;;;;;;;;;;15.90;35.00;;;;;;8365369;28;20372;-48
2022/01/18 05:40:02;;;;;;;;;;;15.80;35.00;;;;;;8364546;28;19932;-49
2022/01/18 05:44:03;;;;;;;;;;;15.80;35.00;;;;;;8364108;28;19917;-48
2022/01/18 05:48:04;;;;;;;;;;;15.80;35.00;;;;;;8364603;28;19917;-49
2022/01/18 05:52:05;;;;;;;;;;;15.80;35.00;;;;;;8364461;28;19912;-51
2022/01/18 05:56:08;;;;;;;;;;;15.80;35.00;;;;;;8364404;28;19925;-47
2022/01/18 06:00:12;;;;;;;;;;;15.80;35.00;;;;;;8364449;28;20077;-48
2022/01/18 06:06:49;;;;;;;;;;;15.80;35.00;;;;;;8363899;28;19928;-48
2022/01/18 06:08:33;;;;;;;;;;;15.80;35.00;;;;;;8364170;28;19927;-48
2022/01/18 06:12:33;;;;;;;;;;;15.80;34.90;;;;;;8364190;28;19913;-48
2022/01/18 06:16:34;;;;;;;;;;;15.80;34.90;;;;;;8363537;28;19921;-48
2022/01/18 06:20:34;;;;;;;;;;;15.80;35.00;;;;;;8363965;28;19917;-48
2022/01/18 06:24:35;;;;;;;;;;;15.70;34.90;;;;;;8363682;28;19925;-49
2022/01/18 06:28:35;;;;;;;;;;;15.70;34.90;;;;;;8363220;28;19939;-48
2022/01/18 06:32:45;;;;;;;;;;;15.70;34.90;;;;;;8363702;28;20285;-50
2022/01/18 06:36:45;;;;;;;;;;;15.70;35.00;;;;;;8363573;28;20011;-47
2022/01/18 06:40:47;;;;;;;;;;;15.70;35.00;;;;;;8362881;28;19924;-48
2022/01/18 06:44:48;;;;;;;;;;;15.70;35.00;;;;;;8363454;28;19970;-50
2022/01/18 06:48:48;;;;;;;;;;;15.70;35.00;;;;;;8363043;28;20011;-49
2022/01/18 06:52:49;;;;;;;;;;;15.70;35.00;;;;;;8362750;28;19912;-48
2022/01/18 06:56:50;;;;;;;;;;;15.70;35.00;;;;;;8363185;28;19921;-48
2022/01/18 07:00:50;;;;;;;;;;;15.70;35.00;;;;;;8361351;28;20263;-47
2022/01/18 07:04:51;;;;;;;;;;;15.70;35.00;;;;;;8361500;28;19917;-50
2022/01/18 07:08:51;;;;;;;;;;;15.70;35.00;;;;;;8361806;28;20386;-47
2022/01/18 07:12:56;;;;;;;;;;;15.70;35.00;;;;;;8361217;28;19912;-50
2022/01/18 07:16:56;;;;;;;;;;;15.70;35.00;;;;;;8361434;28;20071;-47
2022/01/18 07:20:56;;;;;;;;;;;15.70;35.00;;;;;;8361400;28;19917;-49
2022/01/18 07:24:59;;;;;;;;;;;15.70;35.00;;;;;;8360849;28;20050;-48
2022/01/18 07:28:59;;;;;;;;;;;15.70;35.00;;;;;;8361638;28;19924;-47
2022/01/18 07:33:00;;;;;;;;;;;15.70;35.00;;;;;;8361476;28;19917;-50
2022/01/18 07:37:01;;;;;;;;;;;15.80;35.00;;;;;;8360509;28;19981;-48
2022/01/18 07:41:01;;;;;;;;;;;15.80;35.00;;;;;;8360954;28;19978;-47
2022/01/18 07:45:02;;;;;;;;;;;15.80;34.90;;;;;;8360991;28;19924;-47
2022/01/18 07:49:03;;;;;;;;;;;15.80;34.90;;;;;;8360708;28;19955;-49
2022/01/18 07:53:03;;;;;;;;;;;15.90;34.90;;;;;;8361061;28;19967;-48
2022/01/18 07:57:04;;;;;;;;;;;15.90;34.90;;;;;;8360588;28;20288;-51
2022/01/18 08:01:04;;;;;;;;;;;15.80;34.90;;;;;;8360236;28;20307;-49
2022/01/18 08:05:05;;;;;;;;;;;15.90;35.00;;;;;;8361920;28;19925;-49
2022/01/18 08:09:06;;;;;;;;;;;15.90;35.50;;;;;;8366573;28;19917;-52
2022/01/18 08:13:06;;;;;;;;;;;15.80;35.00;;;;;;8366149;28;19944;-49
2022/01/18 08:17:07;;;;;;;;;;;15.80;35.00;;;;;;8366378;28;19935;-47
2022/01/18 08:21:07;;;;;;;;;;;15.80;35.00;;;;;;8365951;28;19989;-48
2022/01/18 08:25:08;;;;;;;;;;;15.80;35.00;;;;;;8365403;28;20317;-50
2022/01/18 08:29:12;;;;;;;;;;;15.80;35.00;;;;;;8366062;28;20216;-48
2022/01/18 08:33:14;;;;;;;;;;;15.80;35.00;;;;;;8366082;28;19917;-49
2022/01/18 08:37:15;;;;;;;;;;;15.80;35.00;;;;;;8364974;28;20286;-51
2022/01/18 08:41:15;;;;;;;;;;;15.80;35.60;;;;;;8365749;28;19932;-47
2022/01/18 08:45:16;;;;;;;;;;;15.80;35.00;;;;;;8365550;28;20369;-50
2022/01/18 08:49:16;;;;;;;;;;;15.80;35.00;;;;;;8365025;28;19952;-49
2022/01/18 08:53:17;;;;;;;;;;;15.80;35.00;;;;;;8365372;28;19913;-48
2022/01/18 08:57:17;;;;;;;;;;;15.80;35.00;;;;;;8364985;28;19925;-48
2022/01/18 09:01:18;;;;;;;;;;;15.80;35.10;;;;;;8364898;28;20277;-47
2022/01/18 09:05:22;;;;;;;;;;;15.80;35.10;;;;;;8365301;28;19925;-49
2022/01/18 09:09:22;;;;;;;;;;;15.80;35.10;;;;;;8364331;28;19917;-48
2022/01/18 09:13:23;;;;;;;;;;;15.80;35.10;;;;;;8364261;28;19959;-48
2022/01/18 09:17:23;;;;;;;;;;;15.80;35.10;;;;;;8363812;28;19925;-49
2022/01/18 09:21:25;;;;;;;;;;;15.80;35.10;;;;;;8364197;28;19916;-48
2022/01/18 09:25:26;;;;;;;;;;;15.80;35.10;;;;;;8363651;28;19920;-48
2022/01/18 09:29:27;;;;;;;;;;;15.80;35.10;;;;;;8363859;28;19912;-48
2022/01/18 09:33:28;;;;;;;;;;;15.80;35.20;;;;;;8364269;28;20386;-48
2022/01/18 09:37:28;;;;;;;;;;;15.80;35.20;;;;;;8363300;28;19995;-48
2022/01/18 09:41:29;;;;;;;;;;;15.80;35.20;;;;;;8363644;28;19917;-48
2022/01/18 09:45:31;;;;;;;;;;;15.80;35.20;;;;;;8363509;28;20095;-50
2022/01/18 09:49:34;;;;;;;;;;;15.80;35.20;;;;;;8363005;28;19964;-50
2022/01/18 09:53:35;;;;;;;;;;;15.80;35.20;;;;;;8363420;28;19928;-49
2022/01/18 09:57:36;;;;;;;;;;;15.80;35.20;;;;;;8363128;28;19948;-49
2022/01/18 10:01:36;;;;;;;;;;;15.80;35.20;;;;;;8362575;28;19917;-51
2022/01/18 10:05:38;;;;;;;;;;;15.80;35.20;;;;;;8363300;28;20400;-48
2022/01/18 10:09:38;;;;;;;;;;;15.80;35.20;;;;;;8362806;28;19917;-50
2022/01/18 10:13:39;;;;;;;;;;;15.80;35.20;;;;;;8362494;28;20376;-48
2022/01/18 10:17:40;;;;;;;;;;;15.80;35.20;;;;;;8362386;28;20298;-49
2022/01/18 10:21:46;;;;;;;;;;;15.80;35.20;;;;;;8362566;28;19917;-47
2022/01/18 10:25:47;;;;;;;;;;;15.80;35.20;;;;;;8362231;28;20050;-50
2022/01/18 10:29:48;;;;;;;;;;;15.80;35.30;;;;;;8361518;28;19917;-50
2022/01/18 10:34:08;;;;;;;;;;;15.80;35.20;;;;;;8362143;28;20243;-49
2022/01/18 10:38:18;;;;;;;;;;;15.80;35.20;;;;;;8362621;28;19924;-49
2022/01/18 10:42:22;;;;;;;;;;;15.90;35.30;;;;;;8361697;28;19959;-48
2022/01/18 10:46:23;;;;;;;;;;;15.80;35.30;;;;;;8361301;28;20285;-51
2022/01/18 10:50:24;;;;;;;;;;;15.90;35.30;;;;;;8362584;28;19928;-48
2022/01/18 10:54:41;;;;;;;;;;;15.80;35.30;;;;;;8362899;28;19999;-49
2022/01/18 10:58:45;;;;;;;;;;;15.90;35.30;;;;;;8362843;28;20326;-50
2022/01/18 11:02:50;;;;;;;;;;;15.90;35.30;;;;;;8362775;28;20377;-49
2022/01/18 11:06:58;;;;;;;;;;;15.80;35.30;;;;;;8362278;28;19917;-48
2022/01/18 11:10:59;;;;;;;;;;;15.80;35.30;;;;;;8362158;28;19917;-49
2022/01/18 11:15:04;;;;;;;;;;;15.80;35.20;;;;;;8362525;28;19924;-49
2022/01/18 11:19:07;;;;;;;;;;;15.90;35.20;;;;;;8362437;28;19913;-49
2022/01/18 11:23:07;;;;;;;;;;;15.80;35.20;;;;;;8362337;28;19924;-49
2022/01/18 11:27:12;;;;;;;;;;;15.80;35.20;;;;;;8362553;28;19924;-48
2022/01/18 11:31:12;;;;;;;;;;;15.90;35.20;;;;;;8361885;28;19982;-50
2022/01/18 11:35:17;;;;;;;;;;;15.90;35.20;;;;;;8362312;28;19975;-50
2022/01/18 11:39:18;;;;;;;;;;;15.90;35.30;;;;;;8363388;28;19912;-50
2022/01/18 11:43:37;;;;;;;;;;;15.90;35.30;;;;;;8368158;28;20004;-48
2022/01/18 11:47:38;;;;;;;;;;;15.80;35.30;;;;;;8368567;28;20377;-47
2022/01/18 11:51:38;;;;;;;;;;;15.90;35.30;;;;;;8366564;28;19921;-48
2022/01/18 11:55:39;;;;;;;;;;;15.80;35.30;;;;;;8367444;28;19925;-49
2022/01/18 11:59:39;;;;;;;;;;;15.90;35.30;;;;;;8368536;28;19913;-48
2022/01/18 12:03:44;;;;;;;;;;;15.90;35.30;;;;;;8344150;28;20413;-50
2022/01/18 12:07:47;;;;;;;;;;;15.90;35.30;;;;;;8334443;28;20298;-53
2022/01/18 12:11:48;;;;;;;;;;;15.90;35.20;;;;;;8335104;28;19917;-49
2022/01/18 12:15:51;;;;;;;;;;;16.00;35.20;;;;;;8334346;28;19925;-49
2022/01/18 12:19:52;;;;;;;;;;;16.00;35.20;;;;;;8334754;28;19913;-49
2022/01/18 12:23:52;;;;;;;;;;;16.00;35.20;;;;;;8334627;28;19929;-50
2022/01/18 12:27:55;;;;;;;;;;;16.00;35.10;;;;;;8333922;28;19921;-47
2022/01/18 12:36:16;;;;;;;;;;;16.10;35.10;;;;;;8334159;28;19926;-48
2022/01/18 12:40:25;;;;;;;;;;;16.10;35.10;;;;;;8333496;28;19936;-48
2022/01/18 12:44:25;;;;;;;;;;;16.10;35.10;;;;;;8334231;28;19913;-49
2022/01/18 12:48:26;;;;;;;;;;;16.10;35.10;;;;;;8329706;28;19968;-52
2022/01/18 12:52:44;;;;;;;;;;;16.10;35.10;;;;;;8333096;28;19948;-51
2022/01/18 12:56:44;;;;;;;;;;;16.10;35.20;;;;;;8333374;28;19971;-51
2022/01/18 13:00:46;;;;;;;;;;;16.10;35.10;;;;;;8333423;28;20333;-51
2022/01/18 13:04:59;;;;;;;;;;;16.10;35.10;;;;;;8333050;28;19917;-47
2022/01/18 13:09:00;;;;;;;;;;;16.10;35.20;;;;;;8333000;28;19952;-48
2022/01/18 13:13:01;;;;;;;;;;;16.10;35.20;;;;;;8330026;28;19921;-51
2022/01/18 13:25:50;;;;;;;;;;;16.10;35.10;;;;;;8332225;28;20302;-50
2022/01/18 13:29:53;;;;;;;;;;;16.10;35.10;;;;;;8335235;28;19991;-51
2022/01/18 13:33:57;;;;;;;;;;;16.10;35.10;;;;;;8325648;28;20315;-52
2022/01/18 13:37:59;;;;;;;;;;;16.10;35.10;;;;;;8332018;28;19932;-50
2022/01/18 13:42:01;;;;;;;;;;;16.10;35.10;;;;;;8332224;28;19939;-49
2022/01/18 13:46:01;;;;;;;;;;;16.10;35.20;;;;;;8331400;28;20329;-52
2022/01/18 13:50:02;;;;;;;;;;;16.10;35.10;;;;;;8332004;28;19925;-51
2022/01/18 13:54:05;;;;;;;;;;;16.10;35.20;;;;;;8331748;28;19917;-50
2022/01/18 13:58:06;;;;;;;;;;;16.10;35.20;;;;;;8331015;28;19921;-47
2022/01/18 14:02:12;;;;;;;;;;;16.10;35.20;;;;;;8329892;28;21277;-48
2022/01/18 14:06:14;;;;;;;;;;;16.10;35.20;;;;;;8331546;28;19921;-49
2022/01/18 14:10:15;;;;;;;;;;;16.10;35.20;;;;;;8311416;28;19917;-49
2022/01/18 14:14:21;;;;;;;;;;;16.10;35.20;;;;;;8327747;28;19943;-49
2022/01/18 14:18:21;;;;;;;;;;;16.10;35.20;;;;;;8331267;28;19932;-48
2022/01/18 14:22:23;;;;;;;;;;;16.10;35.20;;;;;;8330167;28;19956;-49
2022/01/18 14:26:24;;;;;;;;;;;16.10;35.20;;;;;;8330496;28;19976;-52
2022/01/18 14:30:25;;;;;;;;;;;16.10;35.20;;;;;;8330698;28;20373;-49
2022/01/18 14:34:33;;;;;;;;;;;16.10;35.20;;;;;;8330187;28;20389;-49
2022/01/18 14:38:33;;;;;;;;;;;16.10;35.20;;;;;;8330298;28;19956;-49
2022/01/18 14:42:44;;;;;;;;;;;16.10;35.20;;;;;;8329565;28;20278;-48
2022/01/18 14:46:57;;;;;;;;;;;16.10;35.10;;;;;;8329713;28;19924;-51
2022/01/18 14:50:58;;;;;;;;;;;16.10;35.20;;;;;;8332583;28;19921;-49
2022/01/18 14:54:58;;;;;;;;;;;16.10;35.10;;;;;;8329832;28;19928;-52
2022/01/18 14:58:59;;;;;;;;;;;16.10;35.20;;;;;;8330357;28;19924;-49
2022/01/18 15:03:00;;;;;;;;;;;16.10;35.20;;;;;;8329991;28;19913;-52
2022/01/18 15:07:00;;;;;;;;;;;16.10;35.20;;;;;;8329503;28;19925;-48
2022/01/18 15:11:01;;;;;;;;;;;16.10;35.20;;;;;;8330138;28;19917;-49
2022/01/18 15:15:02;;;;;;;;;;;16.10;35.20;;;;;;8331733;28;19956;-48
2022/01/18 15:19:02;;;;;;;;;;;16.10;35.20;;;;;;8327538;28;19924;-50
2022/01/18 15:23:03;;;;;;;;;;;16.10;35.30;;;;;;8337308;28;20016;-47
2022/01/18 15:27:04;;;;;;;;;;;16.10;35.70;;;;;;8337431;28;19924;-50
2022/01/18 15:31:04;;;;;;;;;;;16.10;35.20;;;;;;8336380;28;19925;-48
2022/01/18 15:35:05;;;;;;;;;;;16.10;35.20;;;;;;8335818;28;19925;-49
2022/01/18 15:39:06;;;;;;;;;;;16.10;35.20;;;;;;8335786;28;19923;-49
2022/01/18 15:43:06;;;;;;;;;;;16.10;35.30;;;;;;8332956;28;19926;-48
2022/01/18 15:47:07;;;;;;;;;;;16.10;35.20;;;;;;8335872;28;19913;-48
2022/01/18 15:51:07;;;;;;;;;;;16.10;35.20;;;;;;8335607;28;20406;-52
2022/01/18 15:55:08;;;;;;;;;;;16.10;35.20;;;;;;8334874;28;19929;-48
2022/01/18 15:59:10;;;;;;;;;;;16.10;35.20;;;;;;8335406;28;19928;-48
2022/01/18 16:03:10;;;;;;;;;;;16.10;35.20;;;;;;8335150;28;19913;-49
2022/01/18 16:07:11;;;;;;;;;;;16.10;35.20;;;;;;8334829;28;20294;-50
2022/01/18 16:11:14;;;;;;;;;;;16.10;35.20;;;;;;8335288;28;19928;-51
2022/01/18 16:15:14;;;;;;;;;;;16.10;35.20;;;;;;8334778;28;19983;-51
2022/01/18 16:19:15;;;;;;;;;;;16.10;35.20;;;;;;8334326;28;19924;-51
2022/01/18 16:23:16;;;;;;;;;;;16.00;35.10;;;;;;8334427;28;20337;-51
2022/01/18 16:27:16;;;;;;;;;;;16.10;35.10;;;;;;8333453;28;20384;-51
2022/01/18 16:31:17;;;;;;;;;;;16.10;35.10;;;;;;8334713;28;19921;-48
2022/01/18 16:35:17;;;;;;;;;;;16.10;35.10;;;;;;8334424;28;20386;-49
2022/01/18 16:39:18;;;;;;;;;;;16.10;35.10;;;;;;8334283;28;19917;-48
2022/01/18 16:43:19;;;;;;;;;;;16.10;35.70;;;;;;8333544;28;19932;-49
2022/01/18 16:47:19;;;;;;;;;;;16.10;35.10;;;;;;8333913;28;19917;-48
2022/01/18 16:51:20;;;;;;;;;;;16.10;35.20;;;;;;8333851;28;19932;-48
2022/01/18 16:55:20;;;;;;;;;;;16.10;35.20;;;;;;8333033;28;20484;-49
2022/01/18 16:59:21;;;;;;;;;;;16.10;35.10;;;;;;8333730;28;19917;-49
2022/01/18 17:03:21;;;;;;;;;;;16.10;35.70;;;;;;8323874;28;19917;-47
2022/01/18 17:07:22;;;;;;;;;;;16.10;35.10;;;;;;8332445;28;20420;-48
2022/01/18 17:11:23;;;;;;;;;;;16.10;35.20;;;;;;8332777;28;20350;-50
2022/01/18 17:15:23;;;;;;;;;;;16.10;35.10;;;;;;8332523;28;20382;-51
2022/01/18 17:19:24;;;;;;;;;;;16.10;35.10;;;;;;8332302;28;20020;-51
2022/01/18 17:23:24;;;;;;;;;;;16.10;35.20;;;;;;8332668;28;19917;-49
2022/01/18 17:27:26;;;;;;;;;;;16.10;35.20;;;;;;8332451;28;19920;-51
2022/01/18 17:31:26;;;;;;;;;;;16.10;35.20;;;;;;8332306;28;19913;-50
2022/01/18 17:35:27;;;;;;;;;;;16.10;35.20;;;;;;8332504;28;19931;-49
2022/01/18 17:39:28;;;;;;;;;;;16.10;35.20;;;;;;8332109;28;19917;-49
2022/01/18 17:43:28;;;;;;;;;;;16.10;35.20;;;;;;8318613;28;20358;-49
2022/01/18 17:47:29;;;;;;;;;;;16.10;35.20;;;;;;8331871;28;19956;-48
2022/01/18 17:51:29;;;;;;;;;;;16.10;35.20;;;;;;8331847;28;19925;-48
2022/01/18 17:55:31;;;;;;;;;;;16.10;35.20;;;;;;8331166;28;19930;-48
2022/01/18 17:59:33;;;;;;;;;;;16.10;35.20;;;;;;8331655;28;19918;-47
2022/01/18 18:03:33;;;;;;;;;;;16.10;35.20;;;;;;8331146;28;19913;-47
2022/01/18 18:07:34;;;;;;;;;;;16.10;35.30;;;;;;8315539;28;19997;-51
2022/01/18 18:11:34;;;;;;;;;;;16.10;35.20;;;;;;8331740;28;20373;-48
2022/01/18 18:15:34;;;;;;;;;;;16.10;35.20;;;;;;8331083;28;19972;-48
2022/01/18 18:19:35;;;;;;;;;;;16.10;35.20;;;;;;8330465;28;20385;-48
2022/01/18 18:23:36;;;;;;;;;;;16.10;35.30;;;;;;8330923;28;19920;-49
2022/01/18 18:27:37;;;;;;;;;;;16.10;35.20;;;;;;8330495;28;19917;-47
2022/01/18 18:31:37;;;;;;;;;;;16.10;35.20;;;;;;8330533;28;20378;-47
2022/01/18 18:35:38;;;;;;;;;;;16.10;35.20;;;;;;8330428;28;19933;-47
2022/01/18 18:39:42;;;;;;;;;;;16.10;35.20;;;;;;8330512;28;19917;-47
2022/01/18 18:44:07;;;;;;;;;;;16.10;35.20;;;;;;8330087;28;20238;-51
2022/01/18 18:48:05;;;;;;;;;;;16.10;35.20;;;;;;8329429;28;20618;-47
2022/01/18 18:52:06;;;;;;;;;;;16.10;35.20;;;;;;8312548;28;19921;-47
2022/01/18 18:56:06;;;;;;;;;;;16.10;35.20;;;;;;8326606;28;19932;-48
2022/01/18 19:00:20;;;;;;;;;;;16.10;35.10;;;;;;8330014;28;19971;-48
2022/01/18 19:04:20;;;;;;;;;;;16.10;35.10;;;;;;8330879;28;19960;-48
2022/01/18 19:08:21;;;;;;;;;;;16.10;35.10;;;;;;8330192;28;19917;-51
2022/01/18 19:12:22;;;;;;;;;;;16.10;35.10;;;;;;8330330;28;20389;-49
2022/01/18 19:16:27;;;;;;;;;;;16.10;35.20;;;;;;8329496;28;19931;-49
2022/01/18 19:20:28;;;;;;;;;;;16.10;35.20;;;;;;8330000;28;20437;-50
2022/01/18 19:24:29;;;;;;;;;;;16.10;35.20;;;;;;8329805;28;19924;-49
2022/01/18 19:28:29;;;;;;;;;;;16.10;35.10;;;;;;8329230;28;19917;-50
2022/01/18 19:32:29;;;;;;;;;;;16.10;35.10;;;;;;8329919;28;19924;-49
2022/01/18 19:36:30;;;;;;;;;;;16.10;35.10;;;;;;8329416;28;19983;-48
2022/01/18 19:40:31;;;;;;;;;;;16.10;35.00;;;;;;8329086;28;20294;-49
2022/01/18 19:44:31;;;;;;;;;;;16.10;35.00;;;;;;8329325;28;20331;-49
2022/01/18 19:48:33;;;;;;;;;;;16.10;35.10;;;;;;8329488;28;19921;-49
2022/01/18 19:52:34;;;;;;;;;;;16.10;35.00;;;;;;8329178;28;20420;-48
2022/01/18 19:56:38;;;;;;;;;;;16.10;35.00;;;;;;8329382;28;19924;-49
2022/01/18 20:00:49;;;;;;;;;;;16.10;35.00;;;;;;8330431;28;19917;-52
2022/01/18 20:04:50;;;;;;;;;;;16.10;35.00;;;;;;8326371;28;20281;-48
2022/01/18 20:08:52;;;;;;;;;;;16.10;35.00;;;;;;8309069;28;19924;-49
2022/01/18 20:12:53;;;;;;;;;;;16.10;35.10;;;;;;8334902;28;20293;-48
2022/01/18 20:17:03;;;;;;;;;;;16.10;35.00;;;;;;8334781;28;19936;-52
2022/01/18 20:21:03;;;;;;;;;;;16.10;35.00;;;;;;8334995;28;20034;-49
2022/01/18 20:25:04;;;;;;;;;;;16.10;35.00;;;;;;8348794;28;19928;-48
2022/01/18 20:29:05;;;;;;;;;;;16.10;35.00;;;;;;8344810;28;20000;-47
2022/01/18 20:33:05;;;;;;;;;;;16.10;35.60;;;;;;8334733;28;19920;-49
2022/01/18 20:37:06;;;;;;;;;;;16.10;35.00;;;;;;8333911;28;19925;-49
2022/01/18 20:41:08;;;;;;;;;;;16.10;35.10;;;;;;8334253;28;19917;-48
2022/01/18 20:45:09;;;;;;;;;;;16.10;35.10;;;;;;8334208;28;19923;-48
2022/01/18 20:49:09;;;;;;;;;;;16.10;35.00;;;;;;8333807;28;19920;-48
2022/01/18 20:53:10;;;;;;;;;;;16.10;35.00;;;;;;8332885;28;19944;-50
2022/01/18 20:57:11;;;;;;;;;;;16.10;35.00;;;;;;8365316;28;19931;-46
2022/01/18 21:01:16;;;;;;;;;;;16.10;35.00;;;;;;8366115;28;19916;-48
2022/01/18 21:05:16;;;;;;;;;;;16.10;35.00;;;;;;8347146;28;20365;-49
2022/01/18 21:09:17;;;;;;;;;;;16.10;34.90;;;;;;8333715;28;19967;-50
2022/01/18 21:13:20;;;;;;;;;;;16.10;34.90;;;;;;8332600;28;19917;-48
2022/01/18 21:17:25;;;;;;;;;;;16.10;34.90;;;;;;8333011;28;19995;-49
2022/01/18 21:21:25;;;;;;;;;;;16.10;34.90;;;;;;8333018;28;20021;-48
2022/01/18 21:25:26;;;;;;;;;;;16.10;34.90;;;;;;8332372;28;19917;-48
2022/01/18 21:29:27;;;;;;;;;;;16.10;34.90;;;;;;8332712;28;19948;-48
2022/01/18 21:33:27;;;;;;;;;;;16.10;34.90;;;;;;8333049;28;19949;-49
2022/01/18 21:37:28;;;;;;;;;;;16.10;34.90;;;;;;8331933;28;19925;-49
2022/01/18 21:41:28;;;;;;;;;;;16.00;35.00;;;;;;8332239;28;19917;-48
2022/01/18 21:45:29;;;;;;;;;;;16.10;34.90;;;;;;8332232;28;19917;-49
2022/01/18 21:49:29;;;;;;;;;;;16.00;34.90;;;;;;8331714;28;19932;-49
2022/01/18 21:53:30;;;;;;;;;;;16.10;34.90;;;;;;8332142;28;19917;-48
2022/01/18 21:57:30;;;;;;;;;;;16.00;34.90;;;;;;8331687;28;19929;-48
2022/01/18 22:01:34;;;;;;;;;;;16.10;34.90;;;;;;8331171;28;20003;-49
2022/01/18 22:05:34;;;;;;;;;;;16.10;34.80;;;;;;8331625;28;19923;-48
2022/01/18 22:09:34;;;;;;;;;;;16.10;34.90;;;;;;8331582;28;19918;-47
2022/01/18 22:13:35;;;;;;;;;;;16.10;34.90;;;;;;8331133;28;19952;-48
2022/01/18 22:17:36;;;;;;;;;;;16.00;35.40;;;;;;8331067;28;19926;-50
2022/01/18 22:21:37;;;;;;;;;;;16.00;34.90;;;;;;8331083;28;19913;-48
2022/01/18 22:25:37;;;;;;;;;;;16.10;34.90;;;;;;8329794;28;19917;-47
2022/01/18 22:29:37;;;;;;;;;;;16.10;34.90;;;;;;8330133;28;20247;-47
2022/01/18 22:33:39;;;;;;;;;;;16.10;34.90;;;;;;8330907;28;19917;-48
2022/01/18 22:37:40;;;;;;;;;;;16.10;34.80;;;;;;8324303;28;19932;-49
2022/01/18 22:41:55;;;;;;;;;;;16.10;34.80;;;;;;8320770;28;19917;-49
2022/01/18 22:45:56;;;;;;;;;;;16.10;34.80;;;;;;8330132;28;19924;-49
2022/01/18 22:49:58;;;;;;;;;;;16.10;34.70;;;;;;8330606;28;19920;-49
2022/01/18 22:53:58;;;;;;;;;;;16.20;34.80;;;;;;8330803;28;19936;-49
2022/01/18 22:57:59;;;;;;;;;;;16.20;34.80;;;;;;8329659;28;19957;-49
2022/01/18 23:02:00;;;;;;;;;;;16.10;34.70;;;;;;8315717;28;20020;-49
2022/01/18 23:06:00;;;;;;;;;;;16.10;34.70;;;;;;8311163;28;19924;-49
2022/01/18 23:10:01;;;;;;;;;;;16.10;34.70;;;;;;8329778;28;20331;-49
2022/01/18 23:14:01;;;;;;;;;;;16.10;34.70;;;;;;8330472;28;20359;-49
2022/01/18 23:18:03;;;;;;;;;;;16.10;34.80;;;;;;8329957;28;19925;-49
2022/01/18 23:22:04;;;;;;;;;;;16.10;34.70;;;;;;8329320;28;20011;-50
2022/01/18 23:26:06;;;;;;;;;;;16.10;34.80;;;;;;8329925;28;20440;-48
2022/01/18 23:30:07;;;;;;;;;;;16.10;34.80;;;;;;8329775;28;19916;-47
2022/01/18 23:34:07;;;;;;;;;;;16.10;34.80;;;;;;8329887;28;19914;-49
2022/01/18 23:38:22;;;;;;;;;;;16.10;34.80;;;;;;8335990;28;19992;-47
2022/01/18 23:42:24;;;;;;;;;;;16.10;34.80;;;;;;8338712;28;19924;-52
2022/01/18 23:46:25;;;;;;;;;;;16.10;34.80;;;;;;8335554;28;19921;-48
2022/01/18 23:50:25;;;;;;;;;;;16.10;34.80;;;;;;8335783;28;19925;-48
2022/01/18 23:54:26;;;;;;;;;;;16.10;34.80;;;;;;8336070;28;19966;-48
2022/01/18 23:58:26;;;;;;;;;;;16.10;34.80;;;;;;8335202;28;19929;-49
